createdAt,value
2018-08-17T00:08:09.861Z,22.30
2018-08-17T06:39:35.178Z,32.20
2018-08-17T06:42:06.091Z,33.40
2018-08-17T06:44:36.977Z,33.70
2018-08-17T06:47:08.026Z,34.10
2018-08-17T06:49:39.071Z,34.80
2018-08-17T06:52:09.948Z,35.60
2018-08-17T06:54:41.013Z,36.20
2018-08-17T06:57:12.879Z,36.80
2018-08-17T07:00:29.256Z,37.60
2018-08-17T07:05:37.886Z,37.10
2018-08-17T07:08:15.181Z,36.20
2018-08-17T07:10:47.425Z,35.70
2018-08-17T07:17:59.239Z,37.40
2018-08-17T07:20:30.063Z,37.50
2018-08-17T07:23:00.921Z,38.60
2018-08-17T07:25:31.840Z,38.30
2018-08-17T07:28:02.785Z,39.40
2018-08-17T07:30:33.865Z,39.30
2018-08-17T07:33:04.979Z,39.50
2018-08-17T07:35:36.062Z,38.50
2018-08-17T07:38:06.929Z,38.20
2018-08-17T07:40:38.031Z,38.20
2018-08-17T07:43:17.129Z,39.20
2018-08-17T07:46:10.134Z,40.00
2018-08-17T07:48:42.234Z,40.80
2018-08-17T07:54:27.567Z,41.70
2018-08-17T07:56:58.468Z,41.60
2018-08-17T07:59:29.381Z,42.70
2018-08-17T08:02:00.305Z,42.80
2018-08-17T08:04:31.278Z,42.50
2018-08-17T08:07:02.424Z,42.40
2018-08-17T08:09:33.480Z,43.20
2018-08-17T08:12:04.453Z,42.80
2018-08-17T08:14:35.297Z,42.00
2018-08-17T08:17:06.260Z,41.90
2018-08-17T08:19:37.362Z,42.10
2018-08-17T08:22:08.461Z,42.10
2018-08-17T08:24:40.345Z,42.40
2018-08-17T08:27:11.260Z,42.40
2018-08-17T08:29:42.141Z,42.60
2018-08-17T08:32:13.025Z,43.60
2018-08-17T08:34:43.952Z,42.90
2018-08-17T08:37:14.812Z,42.10
2018-08-17T08:39:45.753Z,42.00
2018-08-17T08:42:16.853Z,42.10
2018-08-17T08:44:47.848Z,41.70
2018-08-17T08:49:49.034Z,41.80
2018-08-17T08:52:19.897Z,42.30
2018-08-17T08:54:50.755Z,42.30
2018-08-17T08:57:21.592Z,42.10
2018-08-17T08:59:52.506Z,42.30
2018-08-17T09:02:23.411Z,41.70
2018-08-17T09:04:54.298Z,42.00
2018-08-17T09:07:25.170Z,41.40
2018-08-17T09:09:56.103Z,40.90
2018-08-17T09:12:26.959Z,41.60
2018-08-17T09:17:28.175Z,41.60
2018-08-17T09:19:59.068Z,41.80
2018-08-17T09:22:29.843Z,41.40
2018-08-17T09:25:00.533Z,41.20
2018-08-17T09:27:31.374Z,41.80
2018-08-17T09:30:02.399Z,41.10
2018-08-17T09:32:33.218Z,40.90
2018-08-17T09:35:04.155Z,41.00
2018-08-17T09:37:34.843Z,40.70
2018-08-17T09:40:06.442Z,40.80
2018-08-17T09:45:11.641Z,41.00
2018-08-17T09:47:42.484Z,40.00
2018-08-17T09:50:14.744Z,39.80
2018-08-17T09:52:45.543Z,40.20
2018-08-17T09:55:16.371Z,40.20
2018-08-17T10:02:52.785Z,39.70
2018-08-17T10:08:32.300Z,40.00
2018-08-17T10:11:03.173Z,39.80
2018-08-17T10:13:33.934Z,39.70
2018-08-17T10:16:04.791Z,39.00
2018-08-17T10:18:41.281Z,38.70
2018-08-17T10:21:12.433Z,38.90
2018-08-17T10:23:43.163Z,38.80
2018-08-17T10:26:13.944Z,38.60
2018-08-17T10:28:44.833Z,38.60
2018-08-17T10:31:18.799Z,38.50
2018-08-17T10:33:50.041Z,37.90
2018-08-17T10:36:20.814Z,37.80
2018-08-17T10:38:51.613Z,38.10
2018-08-17T10:41:22.479Z,37.70
2018-08-17T10:43:53.460Z,37.80
2018-08-17T10:46:24.331Z,38.10
2018-08-17T10:48:55.206Z,37.70
2018-08-17T10:51:26.043Z,37.90
2018-08-17T10:56:27.291Z,37.60
2018-08-17T10:58:59.682Z,38.10
2018-08-17T11:01:30.653Z,38.00
2018-08-17T11:04:01.491Z,37.90
2018-08-17T11:06:32.284Z,37.50
2018-08-17T11:09:03.319Z,37.80
2018-08-17T11:11:34.157Z,38.10
2018-08-17T11:14:05.046Z,38.00
2018-08-17T11:16:35.902Z,37.70
2018-08-17T11:19:07.896Z,37.90
2018-08-17T11:21:38.748Z,37.90
2018-08-17T11:26:40.030Z,37.60
2018-08-17T11:31:41.126Z,37.70
2018-08-17T11:34:11.950Z,37.50
2018-08-17T11:36:42.823Z,37.50
2018-08-17T11:39:13.666Z,37.70
2018-08-17T11:41:44.487Z,37.20
2018-08-17T11:44:17.022Z,37.30
2018-08-17T11:46:47.877Z,37.30
2018-08-17T11:49:18.883Z,37.40
2018-08-17T11:51:49.614Z,37.40
2018-08-17T11:56:50.886Z,37.30
2018-08-17T11:59:21.727Z,37.40
2018-08-17T12:01:52.576Z,37.60
2018-08-17T12:04:23.443Z,37.50
2018-08-17T12:06:54.491Z,37.50
2018-08-17T12:09:25.347Z,37.30
2018-08-17T12:11:56.300Z,37.40
2018-08-17T12:14:27.522Z,37.30
2018-08-17T12:16:58.372Z,37.10
2018-08-17T12:19:29.945Z,37.30
2018-08-17T12:22:00.843Z,37.30
2018-08-17T12:24:32.640Z,37.40
2018-08-17T12:27:03.420Z,37.30
2018-08-17T12:29:34.527Z,37.30
2018-08-17T12:32:05.544Z,37.30
2018-08-17T12:34:36.531Z,37.50
2018-08-17T12:37:07.465Z,37.40
2018-08-17T12:39:38.352Z,37.50
2018-08-17T12:44:39.962Z,37.30
2018-08-17T12:47:11.006Z,37.20
2018-08-17T12:49:41.861Z,37.10
2018-08-17T12:52:13.402Z,36.80
2018-08-17T12:54:44.333Z,37.10
2018-08-17T12:57:15.237Z,37.10
2018-08-17T12:59:46.149Z,37.30
2018-08-17T13:02:17.101Z,37.10
2018-08-17T13:07:18.375Z,36.60
2018-08-17T13:12:23.517Z,36.30
2018-08-17T13:14:54.531Z,36.00
2018-08-17T13:17:27.591Z,35.80
2018-08-17T13:19:58.636Z,35.80
2018-08-17T13:22:29.617Z,35.50
2018-08-17T13:25:00.650Z,35.70
2018-08-17T13:27:32.048Z,35.50
2018-08-17T13:30:03.576Z,35.40
2018-08-17T13:32:34.785Z,35.50
2018-08-17T13:35:06.264Z,35.60
2018-08-17T13:37:43.986Z,35.60
2018-08-17T13:40:18.169Z,35.20
2018-08-17T13:43:00.022Z,35.10
2018-08-17T13:45:34.333Z,35.00
2018-08-17T13:48:07.692Z,34.70
2018-08-17T13:50:45.380Z,34.50
2018-08-17T13:53:24.104Z,34.30
2018-08-17T13:56:07.293Z,34.40
2018-08-17T13:59:28.608Z,34.20
2018-08-17T14:02:16.746Z,34.00
2018-08-17T14:05:00.858Z,34.10
2018-08-17T14:07:35.448Z,33.80
2018-08-17T14:10:21.857Z,33.70
2018-08-17T14:12:55.541Z,33.70
2018-08-17T14:15:33.947Z,33.50
2018-08-17T14:18:40.825Z,33.50
2018-08-17T14:21:11.889Z,33.50
2018-08-17T14:26:27.517Z,33.80
2018-08-17T14:29:00.390Z,33.70
2018-08-17T14:32:01.492Z,33.70
2018-08-17T14:37:43.750Z,33.70
2018-08-17T14:40:24.188Z,33.60
2018-08-17T14:43:12.691Z,33.50
2018-08-17T14:50:51.183Z,33.30
2018-08-17T14:53:25.152Z,33.20
2018-08-17T14:56:03.327Z,33.20
2018-08-17T14:58:35.855Z,33.10
2018-08-17T15:01:10.113Z,33.20
2018-08-17T15:03:42.678Z,33.10
2018-08-17T15:06:17.871Z,33.00
2018-08-17T15:08:49.117Z,33.10
2018-08-17T15:11:21.319Z,33.00
2018-08-17T15:13:53.058Z,32.90
2018-08-17T15:16:37.196Z,32.90
2018-08-17T15:19:15.941Z,32.90
2018-08-17T15:21:52.921Z,33.00
2018-08-17T15:24:25.058Z,32.90
2018-08-17T15:27:02.100Z,32.90
2018-08-17T15:29:34.287Z,32.70
2018-08-17T15:32:13.477Z,32.70
2018-08-17T15:34:46.323Z,32.70
2018-08-17T15:37:18.359Z,32.60
2018-08-17T15:39:49.458Z,32.40
2018-08-17T15:42:21.487Z,32.40
2018-08-17T15:44:53.980Z,32.30
2018-08-17T15:47:26.673Z,32.30
2018-08-17T15:50:32.533Z,32.20
2018-08-17T15:53:03.771Z,32.00
2018-08-17T15:55:39.516Z,32.00
2018-08-17T15:58:10.625Z,32.00
2018-08-17T16:00:41.748Z,31.80
2018-08-17T16:03:13.099Z,31.90
2018-08-17T16:05:45.344Z,31.90
2018-08-17T16:13:45.909Z,31.60
2018-08-17T16:16:24.512Z,31.60
2018-08-17T16:19:01.648Z,31.50
2018-08-17T16:21:32.769Z,31.50
2018-08-17T16:24:08.562Z,31.40
2018-08-17T16:26:40.384Z,31.30
2018-08-17T16:29:13.016Z,31.30
2018-08-17T16:31:58.478Z,31.30
2018-08-17T16:34:41.369Z,31.10
2018-08-17T16:37:33.183Z,31.10
2018-08-17T16:40:34.743Z,31.00
2018-08-17T16:43:53.656Z,31.00
2018-08-17T16:46:37.895Z,30.90
2018-08-17T16:49:10.399Z,30.80
2018-08-17T16:51:41.381Z,30.80
2018-08-17T16:54:12.305Z,30.80
2018-08-17T16:59:13.775Z,30.70
2018-08-17T17:01:52.880Z,30.60
2018-08-17T17:04:29.958Z,30.50
2018-08-17T17:07:02.689Z,30.50
2018-08-17T17:09:34.562Z,30.50
2018-08-17T17:12:12.563Z,30.40
2018-08-17T17:14:44.214Z,30.30
2018-08-17T17:17:15.736Z,30.30
2018-08-17T17:19:46.577Z,30.20
2018-08-17T17:22:17.580Z,30.10
2018-08-17T17:24:48.511Z,30.10
2018-08-17T17:27:21.309Z,30.00
2018-08-17T17:29:52.202Z,30.00
2018-08-17T17:32:23.164Z,30.00
2018-08-17T17:34:54.035Z,29.90
2018-08-17T17:37:24.948Z,29.90
2018-08-17T17:39:55.849Z,29.80
2018-08-17T17:42:26.834Z,29.80
2018-08-17T17:49:58.897Z,29.60
2018-08-17T17:52:29.871Z,29.50
2018-08-17T17:55:00.788Z,29.50
2018-08-17T17:57:31.854Z,29.40
2018-08-17T18:00:02.747Z,29.30
2018-08-17T18:02:33.704Z,29.20
2018-08-17T18:05:04.740Z,29.10
2018-08-17T18:07:39.705Z,29.00
2018-08-17T18:10:10.639Z,29.00
2018-08-17T18:12:41.629Z,28.80
2018-08-17T18:15:13.921Z,28.70
2018-08-17T18:17:44.860Z,28.60
2018-08-17T18:20:15.945Z,28.60
2018-08-17T18:22:47.412Z,28.50
2018-08-17T18:25:19.284Z,28.40
2018-08-17T18:27:50.428Z,28.40
2018-08-17T18:30:21.481Z,28.30
2018-08-17T18:32:52.532Z,28.20
2018-08-17T18:35:23.580Z,28.10
2018-08-17T18:37:54.661Z,28.00
2018-08-17T18:42:55.995Z,27.80
2018-08-17T18:45:26.919Z,27.70
2018-08-17T18:54:11.189Z,27.60
2018-08-17T18:56:42.023Z,27.40
2018-08-17T18:59:13.006Z,27.20
2018-08-17T19:01:43.792Z,27.10
2018-08-17T19:04:14.522Z,27.10
2018-08-17T19:06:45.232Z,27.00
2018-08-17T19:11:46.288Z,27.00
2018-08-17T19:16:47.447Z,27.00
2018-08-17T19:19:18.366Z,26.70
2018-08-17T19:21:49.220Z,26.50
2018-08-17T19:26:50.371Z,26.50
2018-08-17T19:29:21.138Z,26.40
2018-08-17T19:31:55.974Z,26.30
2018-08-17T19:34:30.389Z,26.20
2018-08-17T19:37:01.202Z,26.20
2018-08-17T19:39:34.738Z,26.10
2018-08-17T19:42:05.631Z,26.10
2018-08-17T19:44:36.601Z,26.10
2018-08-17T19:47:07.575Z,26.10
2018-08-17T19:49:39.127Z,26.00
2018-08-17T20:48:58.505Z,24.50
2018-08-17T20:51:32.508Z,24.20
2018-08-17T20:54:07.802Z,24.10
